Time;durP1;ratioP1;P1;durP2;ratioP2;P2;SDS_P1;SDS_P2;PMS_P1;PMS_P2;Temp;Humidity;BMP_temperature;BMP_pressure;BME280_temperature;BME280_humidity;BME280_pressure;Samples;Min_cycle;Max_cycle;Signal;HPM_P1;HPM_P2
2022/12/23 00:00:12;;;;;;;39.80;37.70;;;;;;;;;;5094303;28;20411;-78
2022/12/23 00:02:39;;;;;;;42.97;40.23;;;;;;;;;;5093910;28;20484;-78
2022/12/23 00:05:07;;;;;;;44.83;41.57;;;;;;;;;;5093284;28;20443;-78
2022/12/23 00:07:34;;;;;;;42.80;40.07;;;;;;;;;;5093958;28;20446;-79
2022/12/23 00:10:01;;;;;;;44.67;41.67;;;;;;;;;;5094138;28;20473;-78
2022/12/23 00:15:14;;;;;;;47.67;43.90;;;;;;;;;;5093981;28;20434;-79
2022/12/23 00:17:42;;;;;;;46.83;43.43;;;;;;;;;;5095611;28;20410;-79
2022/12/23 00:20:10;;;;;;;49.93;46.33;;;;;;;;;;5095215;28;20420;-79
2022/12/23 00:25:38;;;;;;;50.23;46.60;;;;;;;;;;5094842;28;20458;-78
2022/12/23 00:28:06;;;;;;;59.60;54.80;;;;;;;;;;5095535;28;20461;-78
2022/12/23 00:30:34;;;;;;;52.00;47.33;;;;;;;;;;5095276;28;20473;-79
2022/12/23 00:33:01;;;;;;;47.47;43.70;;;;;;;;;;5094472;28;20438;-80
2022/12/23 00:35:30;;;;;;;47.87;43.80;;;;;;;;;;5094946;28;20448;-79
2022/12/23 00:37:57;;;;;;;51.03;47.00;;;;;;;;;;5095142;28;20454;-78
2022/12/23 00:43:09;;;;;;;54.33;48.63;;;;;;;;;;5094300;28;20444;-79
2022/12/23 00:45:37;;;;;;;62.73;57.70;;;;;;;;;;5094714;28;21045;-79
2022/12/23 00:50:52;;;;;;;51.73;47.43;;;;;;;;;;5095080;28;20477;-79
2022/12/23 00:53:19;;;;;;;53.37;48.63;;;;;;;;;;5094396;28;20469;-79
2022/12/23 00:55:47;;;;;;;48.40;44.60;;;;;;;;;;5094715;28;20468;-79
2022/12/23 00:58:14;;;;;;;53.27;48.57;;;;;;;;;;5095031;28;20456;-79
2022/12/23 01:06:12;;;;;;;50.40;46.20;;;;;;;;;;5095124;28;20451;-79
2022/12/23 01:08:39;;;;;;;52.00;47.30;;;;;;;;;;5094787;28;20469;-79
2022/12/23 01:11:07;;;;;;;54.13;49.13;;;;;;;;;;5094828;28;20436;-79
2022/12/23 01:13:34;;;;;;;50.57;46.10;;;;;;;;;;5094319;28;20513;-79
2022/12/23 01:16:03;;;;;;;44.67;40.93;;;;;;;;;;5094732;28;20519;-78
2022/12/23 01:18:30;;;;;;;53.83;50.07;;;;;;;;;;5094875;28;20456;-79
2022/12/23 01:20:57;;;;;;;50.33;46.20;;;;;;;;;;5094777;28;20423;-78
2022/12/23 01:23:24;;;;;;;51.13;46.80;;;;;;;;;;5094108;28;20484;-79
2022/12/23 01:25:57;;;;;;;51.40;47.03;;;;;;;;;;5094603;28;20476;-78
2022/12/23 01:28:24;;;;;;;47.57;43.87;;;;;;;;;;5095313;28;20408;-79
2022/12/23 01:30:51;;;;;;;48.20;44.10;;;;;;;;;;5094896;28;20448;-79
2022/12/23 01:33:19;;;;;;;54.70;49.90;;;;;;;;;;5096777;28;20502;-79
2022/12/23 01:35:46;;;;;;;61.93;56.63;;;;;;;;;;5098461;28;20480;-80
2022/12/23 01:38:13;;;;;;;50.90;46.40;;;;;;;;;;5098709;28;20440;-79
2022/12/23 01:40:41;;;;;;;53.33;48.60;;;;;;;;;;5098901;28;21182;-80
2022/12/23 01:43:11;;;;;;;51.37;47.17;;;;;;;;;;5097868;28;20481;-79
2022/12/23 01:45:38;;;;;;;49.00;45.83;;;;;;;;;;5099086;28;20435;-79
2022/12/23 01:48:08;;;;;;;52.17;47.40;;;;;;;;;;5099408;28;20422;-79
2022/12/23 01:50:38;;;;;;;47.10;43.20;;;;;;;;;;5099016;28;20523;-79
2022/12/23 01:53:07;;;;;;;53.00;48.10;;;;;;;;;;5098872;28;20505;-80
2022/12/23 01:55:36;;;;;;;56.37;52.27;;;;;;;;;;5099195;28;20526;-79
2022/12/23 01:58:06;;;;;;;54.67;49.27;;;;;;;;;;5099282;28;20452;-79
2022/12/23 02:11:37;;;;;;;52.53;47.57;;;;;;;;;;5099625;28;20463;-79
2022/12/23 02:16:58;;;;;;;53.90;48.50;;;;;;;;;;5099762;28;20494;-80
2022/12/23 02:19:39;;;;;;;67.63;61.43;;;;;;;;;;5100135;28;20551;-80
2022/12/23 02:22:19;;;;;;;45.40;41.90;;;;;;;;;;5100018;28;20451;-80
2022/12/23 02:25:06;;;;;;;66.77;60.80;;;;;;;;;;5099074;28;20428;-80
2022/12/23 02:27:35;;;;;;;46.53;43.30;;;;;;;;;;5099941;28;20472;-80
2022/12/23 02:30:26;;;;;;;65.23;60.33;;;;;;;;;;5099880;28;20491;-80
2022/12/23 02:33:12;;;;;;;54.37;49.57;;;;;;;;;;5099737;28;20468;-81
2022/12/23 02:35:43;;;;;;;50.33;46.70;;;;;;;;;;5099404;28;21016;-80
2022/12/23 02:38:12;;;;;;;52.43;48.33;;;;;;;;;;5100452;28;20439;-80
2022/12/23 02:40:41;;;;;;;66.13;60.70;;;;;;;;;;5099480;28;20411;-80
2022/12/23 02:43:14;;;;;;;66.73;61.60;;;;;;;;;;5098298;28;20455;-82
2022/12/23 02:45:43;;;;;;;49.07;45.27;;;;;;;;;;5099444;28;20454;-80
2022/12/23 02:48:14;;;;;;;54.30;49.47;;;;;;;;;;5099516;28;20449;-80
2022/12/23 02:50:42;;;;;;;57.87;52.53;;;;;;;;;;5099278;28;20467;-80
2022/12/23 02:53:12;;;;;;;60.10;54.57;;;;;;;;;;5099017;28;20785;-80
2022/12/23 02:55:43;;;;;;;64.03;58.67;;;;;;;;;;5099215;28;20461;-80
2022/12/23 02:58:12;;;;;;;57.80;51.30;;;;;;;;;;5099678;28;20452;-80
2022/12/23 03:00:40;;;;;;;59.27;53.77;;;;;;;;;;5099962;28;20441;-80
2022/12/23 03:03:07;;;;;;;53.53;48.23;;;;;;;;;;5098352;28;20484;-80
2022/12/23 03:05:37;;;;;;;62.53;57.37;;;;;;;;;;5099427;28;20467;-80
2022/12/23 03:08:07;;;;;;;57.97;52.30;;;;;;;;;;5099482;28;20782;-80
2022/12/23 03:10:39;;;;;;;43.23;40.50;;;;;;;;;;5099337;28;20553;-80
2022/12/23 03:13:11;;;;;;;55.13;49.93;;;;;;;;;;5098848;28;20492;-80
2022/12/23 03:15:41;;;;;;;55.57;49.80;;;;;;;;;;5098903;28;20536;-80
2022/12/23 03:18:12;;;;;;;56.03;50.83;;;;;;;;;;5098625;28;20903;-80
2022/12/23 03:20:43;;;;;;;55.00;50.20;;;;;;;;;;5099187;28;20403;-80
2022/12/23 03:23:16;;;;;;;65.77;60.10;;;;;;;;;;5098033;28;20477;-81
2022/12/23 03:25:48;;;;;;;56.93;52.40;;;;;;;;;;5099007;28;20496;-80
2022/12/23 03:28:18;;;;;;;55.70;50.97;;;;;;;;;;5098791;28;20402;-81
2022/12/23 03:30:47;;;;;;;51.83;47.63;;;;;;;;;;5099423;28;20456;-81
2022/12/23 03:33:17;;;;;;;55.47;51.93;;;;;;;;;;5098002;28;20449;-81
2022/12/23 03:35:48;;;;;;;64.60;59.23;;;;;;;;;;5098747;28;20465;-80
2022/12/23 03:38:17;;;;;;;54.37;49.50;;;;;;;;;;5099125;28;20901;-81
2022/12/23 03:40:45;;;;;;;59.10;53.50;;;;;;;;;;5099993;28;20444;-81
2022/12/23 03:43:15;;;;;;;67.60;61.97;;;;;;;;;;5098805;28;20491;-81
2022/12/23 03:45:44;;;;;;;56.47;51.47;;;;;;;;;;5099281;28;20435;-81
2022/12/23 03:48:15;;;;;;;58.53;53.23;;;;;;;;;;5098852;28;20567;-81
2022/12/23 03:50:43;;;;;;;47.60;44.37;;;;;;;;;;5098702;28;20411;-81
2022/12/23 03:53:13;;;;;;;52.40;48.00;;;;;;;;;;5097968;28;20423;-82
2022/12/23 03:55:42;;;;;;;73.33;66.87;;;;;;;;;;5098602;28;20439;-81
2022/12/23 03:58:12;;;;;;;59.50;55.40;;;;;;;;;;5098637;28;20448;-81
2022/12/23 04:00:42;;;;;;;66.63;61.23;;;;;;;;;;5099463;28;20502;-81
2022/12/23 04:03:14;;;;;;;51.43;47.47;;;;;;;;;;5098556;28;20484;-82
2022/12/23 04:05:43;;;;;;;69.23;64.10;;;;;;;;;;5099251;28;20439;-81
2022/12/23 04:08:13;;;;;;;67.77;62.70;;;;;;;;;;5099377;28;20472;-81
2022/12/23 04:10:40;;;;;;;70.47;65.47;;;;;;;;;;5099712;28;20969;-81
2022/12/23 04:13:08;;;;;;;76.97;71.07;;;;;;;;;;5098289;28;20832;-80
2022/12/23 04:15:39;;;;;;;69.80;65.00;;;;;;;;;;5098161;28;20488;-81
2022/12/23 04:18:06;;;;;;;73.17;67.97;;;;;;;;;;5099182;28;20419;-81
2022/12/23 04:20:33;;;;;;;69.63;63.93;;;;;;;;;;5098927;28;20440;-81
2022/12/23 04:23:00;;;;;;;66.07;61.60;;;;;;;;;;5098032;28;20547;-82
2022/12/23 04:25:28;;;;;;;60.67;56.93;;;;;;;;;;5098549;28;20494;-81
2022/12/23 04:27:55;;;;;;;65.57;60.63;;;;;;;;;;5098189;28;20497;-81
2022/12/23 04:30:22;;;;;;;63.17;59.00;;;;;;;;;;5098223;28;20444;-81
2022/12/23 04:32:49;;;;;;;65.70;60.60;;;;;;;;;;5097977;28;20455;-81
2022/12/23 04:35:17;;;;;;;65.27;60.60;;;;;;;;;;5097478;28;20444;-81
2022/12/23 04:37:43;;;;;;;60.93;56.90;;;;;;;;;;5097879;28;20498;-81
2022/12/23 04:40:11;;;;;;;65.50;60.93;;;;;;;;;;5097930;28;20445;-81
2022/12/23 04:42:39;;;;;;;63.83;59.77;;;;;;;;;;5097711;28;20484;-81
2022/12/23 04:45:06;;;;;;;66.60;62.30;;;;;;;;;;5096988;28;21035;-81
2022/12/23 04:47:34;;;;;;;65.20;60.77;;;;;;;;;;5097539;28;20960;-81
2022/12/23 04:50:01;;;;;;;63.53;59.57;;;;;;;;;;5097605;28;20455;-80
2022/12/23 04:52:28;;;;;;;59.37;55.37;;;;;;;;;;5096752;28;20409;-81
2022/12/23 04:54:55;;;;;;;57.30;53.37;;;;;;;;;;5097292;28;20501;-81
2022/12/23 04:57:22;;;;;;;60.03;55.83;;;;;;;;;;5097564;28;20496;-81
2022/12/23 04:59:50;;;;;;;57.33;53.73;;;;;;;;;;5096901;28;20998;-80
2022/12/23 05:02:17;;;;;;;56.77;52.57;;;;;;;;;;5097706;28;20449;-80
2022/12/23 05:04:44;;;;;;;52.53;49.10;;;;;;;;;;5096255;28;20530;-80
2022/12/23 05:07:11;;;;;;;59.37;54.77;;;;;;;;;;5100345;28;20474;-81
2022/12/23 05:09:38;;;;;;;59.83;54.83;;;;;;;;;;5101091;28;20445;-81
2022/12/23 05:12:05;;;;;;;53.03;49.33;;;;;;;;;;5101419;28;20516;-80
2022/12/23 05:14:32;;;;;;;55.27;51.57;;;;;;;;;;5101168;28;20816;-80
2022/12/23 05:17:01;;;;;;;55.00;50.80;;;;;;;;;;5100992;28;20445;-80
2022/12/23 05:19:28;;;;;;;53.07;49.20;;;;;;;;;;5101864;28;20472;-80
2022/12/23 05:21:55;;;;;;;52.33;48.33;;;;;;;;;;5100717;28;20931;-81
2022/12/23 05:24:22;;;;;;;53.50;50.10;;;;;;;;;;5100167;28;20483;-80
2022/12/23 05:26:49;;;;;;;57.10;52.37;;;;;;;;;;5100739;28;20814;-81
2022/12/23 05:29:16;;;;;;;53.60;49.50;;;;;;;;;;5101071;28;20764;-80
2022/12/23 05:31:43;;;;;;;52.27;48.50;;;;;;;;;;5101083;28;20419;-81
2022/12/23 05:34:11;;;;;;;55.03;50.43;;;;;;;;;;5100257;28;20501;-81
2022/12/23 05:36:38;;;;;;;50.83;46.93;;;;;;;;;;5101073;28;21052;-80
2022/12/23 05:39:06;;;;;;;57.73;53.53;;;;;;;;;;5101006;28;20448;-81
2022/12/23 05:41:33;;;;;;;54.73;50.30;;;;;;;;;;5099673;27;20435;-80
2022/12/23 05:44:00;;;;;;;52.27;48.10;;;;;;;;;;5099475;28;20508;-80
2022/12/23 05:46:27;;;;;;;51.27;47.53;;;;;;;;;;5100809;28;20442;-81
2022/12/23 05:48:54;;;;;;;53.17;49.57;;;;;;;;;;5099912;28;20903;-80
2022/12/23 05:51:22;;;;;;;50.47;47.13;;;;;;;;;;5100104;28;20419;-81
2022/12/23 05:53:49;;;;;;;54.40;50.40;;;;;;;;;;5099633;28;20928;-80
2022/12/23 05:56:16;;;;;;;55.13;51.03;;;;;;;;;;5100572;28;20451;-81
2022/12/23 05:58:43;;;;;;;55.23;51.07;;;;;;;;;;5100538;28;20490;-81
2022/12/23 06:01:11;;;;;;;50.97;47.80;;;;;;;;;;5099544;28;20472;-80
2022/12/23 06:03:38;;;;;;;52.60;48.63;;;;;;;;;;5099775;28;20416;-81
2022/12/23 06:06:05;;;;;;;50.80;47.30;;;;;;;;;;5100003;28;20442;-80
2022/12/23 06:08:33;;;;;;;51.13;47.87;;;;;;;;;;5100337;28;20444;-82
2022/12/23 06:11:00;;;;;;;55.63;52.30;;;;;;;;;;5100561;28;20455;-80
2022/12/23 06:13:27;;;;;;;51.83;48.73;;;;;;;;;;5100373;28;20404;-80
2022/12/23 06:15:54;;;;;;;55.87;52.00;;;;;;;;;;5100916;28;20441;-81
2022/12/23 06:18:21;;;;;;;55.77;52.07;;;;;;;;;;5099626;28;20844;-81
2022/12/23 06:20:48;;;;;;;53.23;49.80;;;;;;;;;;5100480;28;20507;-80
2022/12/23 06:23:15;;;;;;;57.20;53.30;;;;;;;;;;5100484;28;20929;-82
2022/12/23 06:25:44;;;;;;;57.37;53.67;;;;;;;;;;5100842;28;20564;-81
2022/12/23 06:28:11;;;;;;;56.00;52.37;;;;;;;;;;5100292;28;20478;-81
2022/12/23 06:30:38;;;;;;;55.87;51.90;;;;;;;;;;5100310;28;20448;-80
2022/12/23 06:33:05;;;;;;;54.47;50.83;;;;;;;;;;5098884;28;20438;-81
2022/12/23 06:35:32;;;;;;;54.00;50.40;;;;;;;;;;5099231;28;20448;-80
2022/12/23 06:37:59;;;;;;;59.50;55.13;;;;;;;;;;5099277;28;20486;-81
2022/12/23 06:40:27;;;;;;;60.47;56.23;;;;;;;;;;5099539;28;20466;-81
2022/12/23 06:42:56;;;;;;;63.30;58.97;;;;;;;;;;5099287;28;20444;-81
2022/12/23 06:45:23;;;;;;;66.13;61.47;;;;;;;;;;5098803;28;20847;-80
2022/12/23 06:47:50;;;;;;;58.50;53.90;;;;;;;;;;5099359;28;20439;-80
2022/12/23 06:50:17;;;;;;;61.50;56.40;;;;;;;;;;5098819;28;20452;-80
2022/12/23 06:52:44;;;;;;;60.80;55.83;;;;;;;;;;5099147;28;20449;-81
2022/12/23 06:55:11;;;;;;;62.43;56.83;;;;;;;;;;5098357;28;20445;-81
2022/12/23 06:57:37;;;;;;;60.17;55.57;;;;;;;;;;5098446;28;20482;-81
2022/12/23 07:00:07;;;;;;;67.57;61.67;;;;;;;;;;5098625;28;20831;-80
2022/12/23 07:02:34;;;;;;;64.63;58.73;;;;;;;;;;5117252;27;20445;-81
2022/12/23 07:05:01;;;;;;;62.90;57.63;;;;;;;;;;5117935;28;20462;-81
2022/12/23 07:07:31;;;;;;;63.97;58.17;;;;;;;;;;5118825;28;20472;-80
2022/12/23 07:09:57;;;;;;;59.40;54.63;;;;;;;;;;5119027;28;20425;-81
2022/12/23 07:12:24;;;;;;;60.30;55.10;;;;;;;;;;5117908;27;20430;-80
2022/12/23 07:14:51;;;;;;;67.43;61.07;;;;;;;;;;5118196;28;20422;-81
2022/12/23 07:17:20;;;;;;;67.23;61.47;;;;;;;;;;5118192;28;20430;-81
2022/12/23 07:19:47;;;;;;;62.00;56.80;;;;;;;;;;5118821;28;21020;-81
2022/12/23 07:22:14;;;;;;;63.07;58.57;;;;;;;;;;5119185;28;20427;-81
2022/12/23 07:24:41;;;;;;;62.43;57.53;;;;;;;;;;5118417;28;20536;-81
2022/12/23 07:27:08;;;;;;;60.03;55.67;;;;;;;;;;5118307;28;20450;-80
2022/12/23 07:29:35;;;;;;;60.47;55.53;;;;;;;;;;5118392;28;20783;-81
2022/12/23 07:32:02;;;;;;;62.13;56.23;;;;;;;;;;5118460;28;20467;-81
2022/12/23 07:34:30;;;;;;;61.07;55.83;;;;;;;;;;5116994;28;20417;-81
2022/12/23 07:36:57;;;;;;;64.83;58.43;;;;;;;;;;5118398;28;20538;-81
2022/12/23 07:39:24;;;;;;;64.97;58.63;;;;;;;;;;5118696;28;20427;-80
2022/12/23 07:41:51;;;;;;;61.50;55.83;;;;;;;;;;5118672;28;20822;-80
2022/12/23 07:44:18;;;;;;;60.63;55.83;;;;;;;;;;5119907;28;20637;-84
2022/12/23 07:46:45;;;;;;;59.13;54.10;;;;;;;;;;5121693;28;20454;-84
2022/12/23 07:49:12;;;;;;;60.10;55.37;;;;;;;;;;5122468;28;20402;-85
2022/12/23 07:51:41;;;;;;;61.63;56.80;;;;;;;;;;5121019;28;20410;-85
2022/12/23 07:54:07;;;;;;;59.00;54.43;;;;;;;;;;5121126;28;20439;-86
2022/12/23 07:56:34;;;;;;;58.20;53.33;;;;;;;;;;5119815;27;20832;-85
2022/12/23 07:59:01;;;;;;;58.13;53.00;;;;;;;;;;5121721;28;20455;-85
2022/12/23 08:01:28;;;;;;;60.80;55.57;;;;;;;;;;5121643;28;20447;-85
2022/12/23 08:03:55;;;;;;;62.47;56.87;;;;;;;;;;5121044;28;20456;-86
2022/12/23 08:06:22;;;;;;;63.03;57.40;;;;;;;;;;5121108;27;20474;-86
2022/12/23 08:08:51;;;;;;;62.30;56.17;;;;;;;;;;5121859;28;20477;-85
2022/12/23 08:11:18;;;;;;;59.80;54.03;;;;;;;;;;5121034;28;20456;-84
2022/12/23 08:13:47;;;;;;;67.50;60.57;;;;;;;;;;5121337;28;20414;-85
2022/12/23 08:16:14;;;;;;;62.93;56.57;;;;;;;;;;5121132;28;20426;-85
2022/12/23 08:18:42;;;;;;;62.13;56.07;;;;;;;;;;5121605;28;20452;-86
2022/12/23 08:21:11;;;;;;;70.87;64.20;;;;;;;;;;5122143;28;20449;-86
2022/12/23 08:23:38;;;;;;;66.03;59.30;;;;;;;;;;5121228;28;20440;-85
2022/12/23 08:26:07;;;;;;;66.70;59.50;;;;;;;;;;5121283;28;20460;-86
2022/12/23 08:28:34;;;;;;;62.00;56.17;;;;;;;;;;5121656;28;20426;-85
2022/12/23 08:31:05;;;;;;;67.23;57.50;;;;;;;;;;5121377;28;20971;-86
2022/12/23 08:33:32;;;;;;;65.83;58.53;;;;;;;;;;5120915;28;20459;-85
2022/12/23 08:35:59;;;;;;;66.03;58.07;;;;;;;;;;5121468;28;20479;-86
2022/12/23 08:38:26;;;;;;;64.13;57.97;;;;;;;;;;5121325;28;20480;-85
2022/12/23 08:40:53;;;;;;;70.80;63.30;;;;;;;;;;5120871;28;20448;-84
2022/12/23 08:43:22;;;;;;;63.00;57.80;;;;;;;;;;5120988;28;20433;-85
2022/12/23 08:45:49;;;;;;;61.40;55.80;;;;;;;;;;5121683;28;20461;-85
2022/12/23 08:48:16;;;;;;;63.97;57.90;;;;;;;;;;5121548;28;20893;-84
2022/12/23 08:50:44;;;;;;;65.50;59.83;;;;;;;;;;5122179;28;20450;-85
2022/12/23 08:53:11;;;;;;;62.47;56.03;;;;;;;;;;5121042;28;20496;-85
2022/12/23 08:55:38;;;;;;;60.27;54.87;;;;;;;;;;5121704;28;20471;-85
2022/12/23 08:58:05;;;;;;;59.78;53.97;;;;;;;;;;5121341;28;20417;-86
2022/12/23 09:00:34;;;;;;;62.13;56.60;;;;;;;;;;5121858;27;20204;-85
2022/12/23 09:03:01;;;;;;;59.70;54.10;;;;;;;;;;5119772;28;20849;-86
2022/12/23 09:05:28;;;;;;;60.33;54.43;;;;;;;;;;5120572;28;21002;-90
2022/12/23 09:07:55;;;;;;;61.07;55.07;;;;;;;;;;5120924;28;20421;-85
2022/12/23 09:10:23;;;;;;;59.77;53.60;;;;;;;;;;5120817;28;20431;-85
2022/12/23 09:12:50;;;;;;;63.97;57.30;;;;;;;;;;5121421;28;20589;-85
2022/12/23 09:15:17;;;;;;;61.30;55.30;;;;;;;;;;5121495;28;20442;-85
2022/12/23 09:17:45;;;;;;;61.33;55.30;;;;;;;;;;5121093;28;20410;-82
2022/12/23 09:20:13;;;;;;;70.07;63.20;;;;;;;;;;5119575;27;20394;-83
2022/12/23 09:22:40;;;;;;;65.63;58.60;;;;;;;;;;5119577;28;21222;-82
2022/12/23 09:25:07;;;;;;;61.83;55.63;;;;;;;;;;5119344;28;20487;-85
2022/12/23 09:27:34;;;;;;;62.63;56.60;;;;;;;;;;5119704;28;20773;-85
2022/12/23 09:30:01;;;;;;;61.67;55.50;;;;;;;;;;5119883;28;20448;-82
2022/12/23 09:32:28;;;;;;;57.87;52.27;;;;;;;;;;5119974;28;20491;-82
2022/12/23 09:34:57;;;;;;;62.37;55.47;;;;;;;;;;5118918;28;20447;-83
2022/12/23 09:37:24;;;;;;;59.10;53.00;;;;;;;;;;5120860;27;20461;-84
2022/12/23 09:39:51;;;;;;;62.77;56.13;;;;;;;;;;5118989;28;20935;-83
2022/12/23 09:42:25;;;;;;;59.33;53.33;;;;;;;;;;5119641;28;20451;-86
2022/12/23 09:45:07;;;;;;;58.87;53.50;;;;;;;;;;5119892;28;20441;-83
2022/12/23 09:47:34;;;;;;;64.70;58.50;;;;;;;;;;5117672;28;20473;-82
2022/12/23 09:50:04;;;;;;;58.13;51.97;;;;;;;;;;5118120;28;20980;-80
2022/12/23 09:52:34;;;;;;;56.87;51.30;;;;;;;;;;5120802;28;20429;-86
2022/12/23 09:55:01;;;;;;;59.53;54.00;;;;;;;;;;5123365;28;20467;-80
2022/12/23 09:57:31;;;;;;;59.10;53.37;;;;;;;;;;5123551;28;20459;-83
2022/12/23 10:00:03;;;;;;;57.50;51.87;;;;;;;;;;5122641;28;20416;-83
2022/12/23 10:02:35;;;;;;;60.17;54.13;;;;;;;;;;5122379;28;20438;-83
2022/12/23 10:05:07;;;;;;;62.27;56.10;;;;;;;;;;5123126;28;20432;-85
2022/12/23 10:07:37;;;;;;;54.60;49.50;;;;;;;;;;5122755;28;20447;-83
2022/12/23 10:10:08;;;;;;;58.63;53.03;;;;;;;;;;5120594;28;20414;-82
2022/12/23 10:12:37;;;;;;;57.70;52.33;;;;;;;;;;5120024;27;20443;-82
2022/12/23 10:15:11;;;;;;;55.23;49.70;;;;;;;;;;5121403;28;20415;-83
2022/12/23 10:17:41;;;;;;;57.67;51.97;;;;;;;;;;5122338;28;20399;-83
2022/12/23 10:20:16;;;;;;;54.27;49.17;;;;;;;;;;5122727;27;20407;-83
2022/12/23 10:22:44;;;;;;;61.60;54.90;;;;;;;;;;5122711;27;20420;-84
2022/12/23 10:25:14;;;;;;;59.27;53.40;;;;;;;;;;5122072;28;21156;-84
2022/12/23 10:27:42;;;;;;;56.30;51.00;;;;;;;;;;5122776;28;20438;-83
2022/12/23 10:30:12;;;;;;;56.20;50.43;;;;;;;;;;5121850;27;20440;-84
2022/12/23 10:32:45;;;;;;;55.83;50.03;;;;;;;;;;5121460;28;20525;-84
2022/12/23 10:35:16;;;;;;;52.07;47.03;;;;;;;;;;5122229;28;20485;-83
2022/12/23 10:37:47;;;;;;;56.50;47.67;;;;;;;;;;5121547;28;20394;-85
2022/12/23 10:40:17;;;;;;;52.93;47.53;;;;;;;;;;5120515;28;20765;-83
2022/12/23 10:42:50;;;;;;;51.30;46.43;;;;;;;;;;5121380;28;20395;-83
2022/12/23 10:45:22;;;;;;;56.33;50.23;;;;;;;;;;5119387;27;20476;-83
2022/12/23 10:47:56;;;;;;;53.50;48.57;;;;;;;;;;5120566;28;20423;-83
2022/12/23 10:50:35;;;;;;;54.40;49.40;;;;;;;;;;5120733;28;20447;-83
2022/12/23 10:53:04;;;;;;;51.97;47.20;;;;;;;;;;5120044;28;20768;-84
2022/12/23 10:55:33;;;;;;;50.90;46.00;;;;;;;;;;5120101;27;20473;-83
2022/12/23 10:58:02;;;;;;;52.23;46.63;;;;;;;;;;5120789;28;20435;-83
2022/12/23 11:00:29;;;;;;;73.27;66.23;;;;;;;;;;5120361;27;20928;-83
2022/12/23 11:03:03;;;;;;;83.17;75.23;;;;;;;;;;5120173;28;20411;-83
2022/12/23 11:05:33;;;;;;;61.00;54.83;;;;;;;;;;5119944;28;20463;-84
2022/12/23 11:08:01;;;;;;;58.30;52.70;;;;;;;;;;5121692;28;20440;-85
2022/12/23 11:10:31;;;;;;;55.80;49.80;;;;;;;;;;5122224;27;20452;-85
2022/12/23 11:12:59;;;;;;;69.07;61.83;;;;;;;;;;5121686;28;20432;-84
2022/12/23 11:15:28;;;;;;;55.80;50.30;;;;;;;;;;5121469;28;20856;-82
2022/12/23 11:17:59;;;;;;;63.13;56.90;;;;;;;;;;5121415;28;20463;-83
2022/12/23 11:20:26;;;;;;;53.80;48.60;;;;;;;;;;5120675;27;20473;-85
2022/12/23 11:22:55;;;;;;;52.53;47.63;;;;;;;;;;5121515;28;20477;-86
2022/12/23 11:25:27;;;;;;;54.37;49.07;;;;;;;;;;5120832;28;20458;-85
2022/12/23 11:27:56;;;;;;;54.27;48.90;;;;;;;;;;5121819;28;20445;-85
2022/12/23 11:30:23;;;;;;;52.23;47.00;;;;;;;;;;5121200;28;20462;-85
2022/12/23 11:32:51;;;;;;;54.23;48.73;;;;;;;;;;5120462;28;20478;-83
2022/12/23 11:35:28;;;;;;;55.47;48.80;;;;;;;;;;5119441;28;20465;-86
2022/12/23 11:37:57;;;;;;;53.13;48.30;;;;;;;;;;5120310;28;20432;-84
2022/12/23 11:40:26;;;;;;;51.87;47.07;;;;;;;;;;5120720;28;20418;-83
2022/12/23 11:42:56;;;;;;;53.10;47.90;;;;;;;;;;5120635;28;20399;-84
2022/12/23 11:45:25;;;;;;;66.37;55.63;;;;;;;;;;5120694;28;20505;-84
2022/12/23 11:47:52;;;;;;;53.67;48.27;;;;;;;;;;5121948;27;20963;-83
2022/12/23 11:50:30;;;;;;;53.90;48.80;;;;;;;;;;5120756;27;20434;-85
2022/12/23 11:53:02;;;;;;;52.20;47.30;;;;;;;;;;5121951;28;20440;-85
2022/12/23 11:55:31;;;;;;;54.57;48.87;;;;;;;;;;5121231;28;20990;-85
2022/12/23 11:57:59;;;;;;;53.03;47.87;;;;;;;;;;5121059;28;20468;-85
2022/12/23 12:00:27;;;;;;;49.83;45.10;;;;;;;;;;5122266;28;20472;-84
2022/12/23 12:02:55;;;;;;;54.87;49.40;;;;;;;;;;5119908;27;20538;-84
2022/12/23 12:05:25;;;;;;;53.90;48.50;;;;;;;;;;5120205;28;20414;-84
2022/12/23 12:07:52;;;;;;;54.00;48.50;;;;;;;;;;5120872;28;20429;-83
2022/12/23 12:10:22;;;;;;;50.50;45.40;;;;;;;;;;5121393;28;20415;-84
2022/12/23 12:12:52;;;;;;;53.70;48.30;;;;;;;;;;5120980;28;20920;-84
2022/12/23 12:15:26;;;;;;;51.50;46.43;;;;;;;;;;5119245;27;20788;-84
2022/12/23 12:17:53;;;;;;;52.63;46.90;;;;;;;;;;5121843;28;20517;-84
2022/12/23 12:20:27;;;;;;;55.03;49.23;;;;;;;;;;5121322;28;20426;-84
2022/12/23 12:22:57;;;;;;;54.00;48.10;;;;;;;;;;5121970;28;20444;-83
2022/12/23 12:25:31;;;;;;;55.53;50.00;;;;;;;;;;5121645;28;20476;-86
2022/12/23 12:28:00;;;;;;;59.00;49.87;;;;;;;;;;5122138;28;20402;-86
2022/12/23 12:30:31;;;;;;;54.03;48.40;;;;;;;;;;5122190;28;20476;-84
2022/12/23 12:33:00;;;;;;;51.63;46.77;;;;;;;;;;5121840;28;20493;-85
2022/12/23 12:35:36;;;;;;;54.20;46.27;;;;;;;;;;5122013;28;20402;-85
2022/12/23 12:38:06;;;;;;;53.40;47.80;;;;;;;;;;5121803;28;20445;-84
2022/12/23 12:40:38;;;;;;;53.00;46.87;;;;;;;;;;5119613;27;20970;-84
2022/12/23 12:43:12;;;;;;;61.50;48.80;;;;;;;;;;5120442;28;20428;-84
2022/12/23 12:45:42;;;;;;;54.87;48.97;;;;;;;;;;5119545;28;20431;-83
2022/12/23 12:48:23;;;;;;;59.67;51.47;;;;;;;;;;5119665;28;20503;-82
2022/12/23 12:50:55;;;;;;;60.87;53.90;;;;;;;;;;5120333;28;20438;-83
2022/12/23 12:53:23;;;;;;;66.03;51.27;;;;;;;;;;5119285;28;20755;-83
2022/12/23 12:55:53;;;;;;;55.93;50.20;;;;;;;;;;5120400;28;20455;-84
2022/12/23 12:58:22;;;;;;;53.73;47.90;;;;;;;;;;5121492;28;20393;-84
2022/12/23 13:00:54;;;;;;;53.70;48.13;;;;;;;;;;5120141;27;20463;-84
2022/12/23 13:03:31;;;;;;;53.30;47.60;;;;;;;;;;5119655;28;20504;-83
2022/12/23 13:06:06;;;;;;;58.30;50.33;;;;;;;;;;5119637;28;20478;-83
2022/12/23 13:08:40;;;;;;;54.23;48.43;;;;;;;;;;5120465;28;20414;-85
2022/12/23 13:11:13;;;;;;;52.60;47.13;;;;;;;;;;5119229;27;20449;-83
2022/12/23 13:13:44;;;;;;;52.10;46.63;;;;;;;;;;5119896;28;20406;-83
2022/12/23 13:16:17;;;;;;;50.10;44.60;;;;;;;;;;5118685;28;20462;-81
2022/12/23 13:18:47;;;;;;;52.33;47.07;;;;;;;;;;5118389;28;20444;-86
2022/12/23 13:21:17;;;;;;;55.90;50.27;;;;;;;;;;5118684;27;20505;-92
2022/12/23 13:23:48;;;;;;;56.27;50.70;;;;;;;;;;5119841;28;20427;-82
2022/12/23 13:26:20;;;;;;;52.43;47.13;;;;;;;;;;5120670;28;20959;-82
2022/12/23 13:28:51;;;;;;;51.23;46.20;;;;;;;;;;5124478;28;20394;-82
2022/12/23 13:31:26;;;;;;;51.27;46.03;;;;;;;;;;5125408;28;20867;-82
2022/12/23 13:33:56;;;;;;;50.20;45.30;;;;;;;;;;5124704;27;20421;-82
2022/12/23 13:36:30;;;;;;;50.00;45.10;;;;;;;;;;5125287;28;20521;-83
2022/12/23 13:39:03;;;;;;;53.00;47.17;;;;;;;;;;5125405;28;20438;-82
2022/12/23 13:41:33;;;;;;;52.10;46.93;;;;;;;;;;5125726;28;20410;-82
2022/12/23 13:44:04;;;;;;;55.87;50.37;;;;;;;;;;5125131;27;20491;-83
2022/12/23 13:46:39;;;;;;;54.10;48.50;;;;;;;;;;5124128;28;20483;-82
2022/12/23 13:49:10;;;;;;;57.53;50.73;;;;;;;;;;5123742;27;20459;-83
2022/12/23 13:51:41;;;;;;;53.77;48.07;;;;;;;;;;5124014;28;20435;-83
2022/12/23 13:54:12;;;;;;;53.90;48.50;;;;;;;;;;5123833;28;20488;-81
2022/12/23 13:56:43;;;;;;;60.30;50.20;;;;;;;;;;5123885;28;20843;-83
2022/12/23 13:59:11;;;;;;;59.17;49.23;;;;;;;;;;5123482;27;20800;-83
2022/12/23 14:01:44;;;;;;;55.33;48.97;;;;;;;;;;5123587;28;20931;-82
2022/12/23 14:04:29;;;;;;;53.50;47.73;;;;;;;;;;5123105;28;20465;-82
2022/12/23 14:06:57;;;;;;;64.87;49.50;;;;;;;;;;5123423;28;20497;-83
2022/12/23 14:09:29;;;;;;;57.80;51.77;;;;;;;;;;5123616;28;20504;-82
2022/12/23 14:11:58;;;;;;;55.77;49.90;;;;;;;;;;5123574;28;20421;-82
2022/12/23 14:14:25;;;;;;;60.17;54.07;;;;;;;;;;5123270;28;20454;-82
2022/12/23 14:16:59;;;;;;;64.60;55.87;;;;;;;;;;5123228;28;20459;-82
2022/12/23 14:19:44;;;;;;;59.60;52.60;;;;;;;;;;5122831;28;20419;-83
2022/12/23 14:22:20;;;;;;;66.43;51.60;;;;;;;;;;5123064;28;20451;-82
2022/12/23 14:25:09;;;;;;;58.63;51.10;;;;;;;;;;5123642;28;20410;-83
2022/12/23 14:27:46;;;;;;;59.60;52.57;;;;;;;;;;5123082;28;20468;-82
2022/12/23 14:30:14;;;;;;;55.53;48.70;;;;;;;;;;5123352;28;20427;-82
2022/12/23 14:32:44;;;;;;;55.83;49.63;;;;;;;;;;5123406;28;20438;-82
2022/12/23 14:35:20;;;;;;;57.60;48.80;;;;;;;;;;5122760;28;20475;-82
2022/12/23 14:38:05;;;;;;;59.23;51.97;;;;;;;;;;5123000;28;20462;-82
2022/12/23 14:40:50;;;;;;;55.57;49.90;;;;;;;;;;5123223;28;20443;-82
2022/12/23 14:43:26;;;;;;;60.70;51.80;;;;;;;;;;5122785;28;20442;-83
2022/12/23 14:45:53;;;;;;;60.73;47.40;;;;;;;;;;5123156;28;20464;-82
2022/12/23 14:48:37;;;;;;;52.77;47.20;;;;;;;;;;5122138;28;20535;-82
2022/12/23 14:51:21;;;;;;;54.27;48.70;;;;;;;;;;5123047;28;20411;-82
2022/12/23 14:54:03;;;;;;;53.77;48.37;;;;;;;;;;5122344;28;20410;-82
2022/12/23 14:56:32;;;;;;;59.37;48.27;;;;;;;;;;5122314;28;20515;-82
2022/12/23 14:59:10;;;;;;;72.33;50.73;;;;;;;;;;5122659;28;20403;-83